createdAt,value
2023-11-23T00:00:36.517Z,148843.66
2023-11-23T00:02:38.539Z,148807.34
2023-11-23T00:04:40.070Z,148871.25
2023-11-23T00:06:41.506Z,148771.03
2023-11-23T00:08:43.168Z,148793.59
2023-11-23T00:10:44.622Z,148829.91
2023-11-23T00:12:46.338Z,148764.75
2023-11-23T00:14:47.807Z,148857.47
2023-11-23T00:16:49.358Z,148804.84
2023-11-23T00:18:51.223Z,148812.38
2023-11-23T00:20:52.781Z,148816.13
2023-11-23T00:22:56.405Z,148838.69
2023-11-23T00:24:59.863Z,148792.34
2023-11-23T00:27:01.433Z,148752.25
2023-11-23T00:29:02.910Z,148821.13
2023-11-23T00:31:04.691Z,148743.47
2023-11-23T00:33:06.149Z,148844.91
2023-11-23T00:35:08.261Z,148848.69
2023-11-23T00:37:09.862Z,148868.72
2023-11-23T00:39:11.338Z,148858.72
2023-11-23T00:41:12.768Z,148843.66
2023-11-23T00:43:14.562Z,148836.19
2023-11-23T00:45:16.161Z,148808.59
2023-11-23T00:47:17.735Z,148882.50
2023-11-23T00:49:19.521Z,148920.13
2023-11-23T00:51:20.949Z,148890.03
2023-11-23T00:53:22.797Z,148849.94
2023-11-23T00:55:24.725Z,148896.31
2023-11-23T00:57:26.164Z,148843.66
2023-11-23T00:59:27.678Z,148911.31
2023-11-23T01:01:29.593Z,148898.81
2023-11-23T01:03:31.196Z,148933.88
2023-11-23T01:05:32.845Z,148935.13
2023-11-23T01:07:34.338Z,148882.50
2023-11-23T01:09:35.776Z,148932.63
2023-11-23T01:11:37.304Z,148880.03
2023-11-23T01:13:39.500Z,148888.78
2023-11-23T01:15:41.021Z,148883.75
2023-11-23T01:17:43.317Z,148828.66
2023-11-23T01:19:44.780Z,148883.75
2023-11-23T01:21:46.279Z,148918.84
2023-11-23T01:23:47.806Z,148869.97
2023-11-23T01:25:49.238Z,148861.19
2023-11-23T01:27:50.677Z,148925.09
2023-11-23T01:29:52.412Z,148854.97
2023-11-23T01:31:53.910Z,148888.78
2023-11-23T01:33:55.452Z,148905.03
2023-11-23T01:35:57.255Z,148917.59
2023-11-23T01:37:58.702Z,148921.38
2023-11-23T01:40:00.362Z,148952.69
2023-11-23T01:42:02.344Z,148956.44
2023-11-23T01:44:04.017Z,148994.03
2023-11-23T01:46:06.225Z,148955.19
2023-11-23T01:48:07.850Z,148933.88
2023-11-23T01:50:12.081Z,148897.56
2023-11-23T01:52:15.537Z,148858.72
2023-11-23T01:54:17.509Z,148981.53
2023-11-23T01:56:20.756Z,148963.94
2023-11-23T01:58:22.337Z,148923.84
2023-11-23T02:00:24.408Z,148970.22
2023-11-23T02:02:30.420Z,148991.50
2023-11-23T02:04:32.198Z,148977.75
2023-11-23T02:06:33.652Z,149026.59
2023-11-23T02:08:36.037Z,148973.97
2023-11-23T02:10:38.280Z,148953.94
2023-11-23T02:12:39.773Z,148957.69
2023-11-23T02:14:41.492Z,149034.13
2023-11-23T02:16:43.115Z,149015.34
2023-11-23T02:18:44.578Z,148938.91
2023-11-23T02:20:46.232Z,148948.91
2023-11-23T02:22:47.902Z,148985.25
2023-11-23T02:24:49.419Z,148992.78
2023-11-23T02:26:51.009Z,149044.19
2023-11-23T02:28:52.546Z,149011.56
2023-11-23T02:30:54.040Z,149004.03
2023-11-23T02:32:56.011Z,148980.25
2023-11-23T02:34:57.467Z,149109.34
2023-11-23T02:36:58.900Z,149031.63
2023-11-23T02:39:00.811Z,149025.34
2023-11-23T02:41:02.295Z,149055.44
2023-11-23T02:43:07.181Z,149020.38
2023-11-23T02:45:09.335Z,149009.06
2023-11-23T02:47:10.774Z,148927.59
2023-11-23T02:49:12.255Z,148979.00
2023-11-23T02:51:13.948Z,148956.44
2023-11-23T02:53:15.399Z,148937.66
2023-11-23T02:55:16.867Z,148995.28
2023-11-23T02:57:18.958Z,149002.81
2023-11-23T02:59:20.470Z,148966.44
2023-11-23T03:01:22.001Z,148982.78
2023-11-23T03:03:23.703Z,149007.81
2023-11-23T03:05:25.179Z,149009.06
2023-11-23T03:07:26.607Z,149064.25
2023-11-23T03:09:28.570Z,149080.53
2023-11-23T03:11:30.087Z,149079.28
2023-11-23T03:13:31.621Z,148991.50
2023-11-23T03:15:33.234Z,149045.41
2023-11-23T03:17:34.721Z,149065.44
2023-11-23T03:19:36.423Z,149052.94
2023-11-23T03:21:38.164Z,149061.72
2023-11-23T03:23:42.371Z,149081.78
2023-11-23T03:25:43.868Z,149084.31
2023-11-23T03:27:45.460Z,149124.41
2023-11-23T03:29:46.913Z,149093.06
2023-11-23T03:31:48.357Z,149115.63
2023-11-23T03:33:50.153Z,149059.22
2023-11-23T03:35:51.644Z,149095.56
2023-11-23T03:37:53.098Z,149113.09
2023-11-23T03:39:58.537Z,149039.16
2023-11-23T03:41:59.973Z,149075.50
2023-11-23T03:44:01.484Z,149109.34
2023-11-23T03:46:03.282Z,149081.78
2023-11-23T03:48:05.151Z,149085.50
2023-11-23T03:50:07.147Z,149105.63
2023-11-23T03:52:08.896Z,149069.22
2023-11-23T03:54:10.424Z,149113.09
2023-11-23T03:56:15.131Z,149103.09
2023-11-23T03:58:16.740Z,149049.16
2023-11-23T04:00:18.447Z,149130.66
2023-11-23T04:02:20.014Z,149074.25
2023-11-23T04:04:22.056Z,149101.84
2023-11-23T04:06:23.555Z,149066.72
2023-11-23T04:08:25.033Z,149046.66
2023-11-23T04:10:26.650Z,149124.41
2023-11-23T04:12:28.090Z,149104.34
2023-11-23T04:14:29.562Z,149104.34
2023-11-23T04:16:31.265Z,149129.41
2023-11-23T04:18:32.751Z,149074.25
2023-11-23T04:20:34.333Z,149150.72
2023-11-23T04:22:35.779Z,149126.88
2023-11-23T04:24:39.654Z,149086.75
2023-11-23T04:26:44.230Z,149083.03
2023-11-23T04:28:45.709Z,149104.34
2023-11-23T04:30:47.136Z,149129.41
2023-11-23T04:32:48.803Z,149116.88
2023-11-23T04:34:50.381Z,149110.59
2023-11-23T04:36:51.811Z,149114.38
2023-11-23T04:38:53.396Z,149115.63
2023-11-23T04:40:54.905Z,149101.84
2023-11-23T04:42:56.338Z,149150.72
2023-11-23T04:44:58.253Z,149175.81
2023-11-23T04:46:59.850Z,149157.00
2023-11-23T04:49:01.288Z,149165.78
2023-11-23T04:51:02.909Z,149140.72
2023-11-23T04:53:04.867Z,149175.81
2023-11-23T04:55:06.727Z,149194.59
2023-11-23T04:57:08.401Z,149207.19
2023-11-23T04:59:10.149Z,149192.09
2023-11-23T05:01:11.636Z,149209.66
2023-11-23T05:03:13.280Z,149185.84
2023-11-23T05:05:14.912Z,149248.53
2023-11-23T05:07:16.420Z,149185.84
2023-11-23T05:09:18.251Z,149229.72
2023-11-23T05:11:19.811Z,149200.91
2023-11-23T05:13:21.242Z,149175.81
2023-11-23T05:15:22.845Z,149149.47
2023-11-23T05:17:24.368Z,149165.78
2023-11-23T05:19:35.938Z,149164.53
2023-11-23T05:21:43.756Z,149178.31
2023-11-23T05:23:45.585Z,149157.00
2023-11-23T05:25:47.031Z,149135.69
2023-11-23T05:27:48.575Z,149199.63
2023-11-23T05:29:51.784Z,149227.25
2023-11-23T05:31:53.726Z,149204.66
2023-11-23T05:33:55.364Z,149193.34
2023-11-23T05:35:56.994Z,149199.63
2023-11-23T05:37:58.880Z,149199.63
2023-11-23T05:40:00.584Z,149167.00
2023-11-23T05:42:02.514Z,149197.13
2023-11-23T05:44:04.095Z,149190.84
2023-11-23T05:46:05.825Z,149192.09
2023-11-23T05:48:07.587Z,149232.22
2023-11-23T05:50:09.594Z,149222.22
2023-11-23T05:52:11.589Z,149222.22
2023-11-23T05:54:13.162Z,149202.16
2023-11-23T05:56:14.605Z,149244.81
2023-11-23T05:58:16.290Z,149233.50
2023-11-23T06:00:18.313Z,149266.13
2023-11-23T06:02:20.338Z,149192.09
2023-11-23T06:04:22.475Z,149179.56
2023-11-23T06:06:24.754Z,149218.44
2023-11-23T06:08:28.103Z,149232.22
2023-11-23T06:10:29.697Z,149239.78
2023-11-23T06:12:31.476Z,149242.28
2023-11-23T06:14:33.368Z,149230.97
2023-11-23T06:16:35.248Z,149233.50
2023-11-23T06:18:37.033Z,149232.22
2023-11-23T06:20:38.513Z,149222.22
2023-11-23T06:22:40.144Z,149243.53
2023-11-23T06:24:42.016Z,149278.66
2023-11-23T06:26:43.684Z,149262.34
2023-11-23T06:28:45.338Z,149282.44
2023-11-23T06:30:47.948Z,149273.63
2023-11-23T06:32:49.457Z,149264.88
2023-11-23T06:34:51.285Z,149283.69
2023-11-23T06:36:53.199Z,149325.09
2023-11-23T06:38:54.651Z,149296.22
2023-11-23T06:40:56.218Z,149272.38
2023-11-23T06:42:57.919Z,149310.00
2023-11-23T06:44:59.562Z,149287.47
2023-11-23T06:47:01.260Z,149302.50
2023-11-23T06:49:05.013Z,149282.44
2023-11-23T06:51:08.643Z,149313.78
2023-11-23T06:53:10.459Z,149315.03
2023-11-23T06:55:12.091Z,149335.09
2023-11-23T06:57:13.641Z,149325.09
2023-11-23T06:59:15.259Z,149366.50
2023-11-23T07:01:17.275Z,149338.88
2023-11-23T07:03:18.927Z,149352.66
2023-11-23T07:05:20.765Z,149318.78
2023-11-23T07:07:22.199Z,149347.69
2023-11-23T07:09:23.805Z,149343.91
2023-11-23T07:11:25.564Z,149340.13
2023-11-23T07:13:27.815Z,149365.22
2023-11-23T07:15:29.390Z,149343.91
2023-11-23T07:17:31.012Z,149348.94
2023-11-23T07:19:32.785Z,149353.91
2023-11-23T07:21:34.251Z,149357.69
2023-11-23T07:23:35.962Z,149391.56
2023-11-23T07:25:37.725Z,149375.25
2023-11-23T07:27:39.326Z,149397.84
2023-11-23T07:29:41.253Z,149348.94
2023-11-23T07:31:45.000Z,149395.31
2023-11-23T07:33:46.634Z,149415.41
2023-11-23T07:35:49.393Z,149430.50
2023-11-23T07:37:51.121Z,149405.38
2023-11-23T07:39:52.608Z,149372.72
2023-11-23T07:41:54.270Z,149385.31
2023-11-23T07:43:55.868Z,149343.91
2023-11-23T07:45:57.300Z,149432.97
2023-11-23T07:47:59.035Z,149466.91
2023-11-23T07:50:00.638Z,149444.28
2023-11-23T07:52:02.114Z,149451.84
2023-11-23T07:54:04.013Z,149450.59
2023-11-23T07:56:05.980Z,149425.47
2023-11-23T07:58:07.494Z,149488.22
2023-11-23T08:00:09.801Z,149461.88
2023-11-23T08:02:11.697Z,149497.00
2023-11-23T08:04:13.415Z,149474.41
2023-11-23T08:06:15.117Z,149502.03
2023-11-23T08:08:17.123Z,149505.81
2023-11-23T08:10:18.676Z,149502.03
2023-11-23T08:12:20.360Z,149488.22
2023-11-23T08:14:21.875Z,149524.63
2023-11-23T08:16:23.334Z,149512.09
2023-11-23T08:18:32.863Z,149510.84
2023-11-23T08:20:43.015Z,149525.88
2023-11-23T08:22:44.475Z,149540.94
2023-11-23T08:24:46.393Z,149530.94
2023-11-23T08:26:47.967Z,149576.09
2023-11-23T08:28:49.398Z,149581.13
2023-11-23T08:30:51.225Z,149545.97
2023-11-23T08:32:53.005Z,149559.78
2023-11-23T08:34:54.507Z,149588.69
2023-11-23T08:36:56.055Z,149592.47
2023-11-23T08:38:57.600Z,149583.63
2023-11-23T08:40:59.148Z,149613.81
2023-11-23T08:43:00.795Z,149628.88
2023-11-23T08:45:02.686Z,149597.44
2023-11-23T08:47:04.683Z,149621.31
2023-11-23T08:49:06.516Z,149650.22
2023-11-23T08:51:08.261Z,149662.75
2023-11-23T08:53:09.709Z,149701.69
2023-11-23T08:55:11.301Z,149681.59
2023-11-23T08:57:12.995Z,149660.25
2023-11-23T08:59:14.430Z,149719.28
2023-11-23T09:01:16.090Z,149636.38
2023-11-23T09:03:17.779Z,149685.38
2023-11-23T09:05:19.444Z,149714.28
2023-11-23T09:07:21.029Z,149719.28
2023-11-23T09:09:22.638Z,149735.66
2023-11-23T09:11:24.083Z,149767.03
2023-11-23T09:13:25.585Z,149733.13
2023-11-23T09:15:27.204Z,149716.81
2023-11-23T09:17:28.651Z,149677.81
2023-11-23T09:19:30.315Z,149721.78
2023-11-23T09:21:31.908Z,149740.63
2023-11-23T09:23:33.412Z,149733.13
2023-11-23T09:25:35.378Z,149734.38
2023-11-23T09:27:37.382Z,149769.56
2023-11-23T09:29:38.885Z,149784.63
2023-11-23T09:31:40.459Z,149741.91
2023-11-23T09:33:42.094Z,149788.41
2023-11-23T09:35:43.734Z,149797.22
2023-11-23T09:37:45.908Z,149782.09
2023-11-23T09:39:47.536Z,149849.97
2023-11-23T09:41:49.236Z,149851.25
2023-11-23T09:43:51.369Z,149842.44
2023-11-23T09:45:53.643Z,149890.19
2023-11-23T09:47:57.211Z,149895.25
2023-11-23T09:49:59.921Z,149921.66
2023-11-23T09:52:01.533Z,149893.97
2023-11-23T09:54:04.704Z,149912.84
2023-11-23T09:56:06.623Z,149891.47
2023-11-23T09:58:08.184Z,149907.81
2023-11-23T10:00:10.131Z,149940.50
2023-11-23T10:02:12.739Z,149982.00
2023-11-23T10:04:15.142Z,149958.09
2023-11-23T10:06:16.746Z,149963.09
2023-11-23T10:08:18.617Z,149949.28
2023-11-23T10:10:20.807Z,149960.63
2023-11-23T10:12:22.276Z,149994.56
2023-11-23T10:14:24.086Z,149959.38
2023-11-23T10:16:25.618Z,150025.97
2023-11-23T10:18:41.022Z,150032.28
2023-11-23T10:20:46.860Z,150027.22
2023-11-23T10:22:50.080Z,150052.41
2023-11-23T10:24:51.677Z,150029.75
2023-11-23T10:26:53.414Z,150036.06
2023-11-23T10:28:54.939Z,150056.19
2023-11-23T10:30:56.389Z,150073.78
2023-11-23T10:32:59.245Z,150091.38
2023-11-23T10:35:07.046Z,150071.25
2023-11-23T10:37:09.723Z,150083.88
2023-11-23T10:39:12.969Z,150127.84
2023-11-23T10:41:15.452Z,150122.88
2023-11-23T10:43:17.078Z,150117.81
2023-11-23T10:45:22.805Z,150147.97
2023-11-23T10:47:27.426Z,150173.16
2023-11-23T10:49:32.604Z,150173.16
2023-11-23T10:51:34.811Z,150170.63
2023-11-23T10:53:37.274Z,150193.28
2023-11-23T10:55:38.708Z,150202.13
2023-11-23T10:57:47.237Z,150210.91
2023-11-23T10:59:50.246Z,150195.81
2023-11-23T11:01:55.627Z,150203.38
2023-11-23T11:03:58.057Z,150237.34
2023-11-23T11:06:00.526Z,150267.56
2023-11-23T11:08:05.737Z,150275.09
2023-11-23T11:10:09.163Z,150286.44
2023-11-23T11:12:10.715Z,150305.31
2023-11-23T11:14:12.557Z,150300.28
2023-11-23T11:16:15.303Z,150322.94
2023-11-23T11:18:21.746Z,150291.44
2023-11-23T11:20:26.966Z,150334.25
2023-11-23T11:22:28.561Z,150336.78
2023-11-23T11:24:30.296Z,150356.91
2023-11-23T11:26:34.760Z,150344.34
2023-11-23T11:28:40.778Z,150413.56
2023-11-23T11:30:44.731Z,150421.13
2023-11-23T11:32:46.394Z,150388.41
2023-11-23T11:34:47.996Z,150390.94
2023-11-23T11:36:57.324Z,150426.19
2023-11-23T11:39:00.797Z,150416.09
2023-11-23T11:41:03.548Z,150472.78
2023-11-23T11:43:07.938Z,150457.63
2023-11-23T11:45:10.405Z,150474.03
2023-11-23T11:47:12.438Z,150467.75
2023-11-23T11:49:14.088Z,150479.06
2023-11-23T11:51:15.677Z,150480.31
2023-11-23T11:53:19.791Z,150436.22
2023-11-23T11:55:21.498Z,150485.41
2023-11-23T11:57:22.988Z,150505.56
2023-11-23T11:59:28.909Z,150492.97
2023-11-23T12:01:32.115Z,150496.72
2023-11-23T12:03:33.758Z,150516.88
2023-11-23T12:05:35.289Z,150529.50
2023-11-23T12:07:36.840Z,150510.63
2023-11-23T12:09:41.985Z,150503.03
2023-11-23T12:11:48.078Z,150549.66
2023-11-23T12:13:52.927Z,150552.19
2023-11-23T12:15:54.454Z,150523.19
2023-11-23T12:17:56.061Z,150559.72
2023-11-23T12:19:57.704Z,150537.03
2023-11-23T12:21:59.190Z,150526.97
2023-11-23T12:24:00.757Z,150533.28
2023-11-23T12:26:02.470Z,150552.19
2023-11-23T12:28:08.882Z,150542.09
2023-11-23T12:30:10.959Z,150562.22
2023-11-23T12:32:12.611Z,150587.44
2023-11-23T12:34:14.031Z,150566.03
2023-11-23T12:36:15.611Z,150569.81
2023-11-23T12:38:17.344Z,150577.34
2023-11-23T12:40:18.957Z,150583.66
2023-11-23T12:42:20.837Z,150595.03
2023-11-23T12:44:23.291Z,150622.72
2023-11-23T12:46:24.837Z,150603.81
2023-11-23T12:48:26.557Z,150607.59
2023-11-23T12:50:28.317Z,150641.59
2023-11-23T12:52:29.777Z,150632.81
2023-11-23T12:54:31.817Z,150645.41
2023-11-23T12:56:34.398Z,150675.66
2023-11-23T12:58:36.657Z,150685.72
2023-11-23T13:00:39.312Z,150690.78
2023-11-23T13:02:41.430Z,150703.34
2023-11-23T13:04:42.944Z,150700.84
2023-11-23T13:06:44.883Z,150680.66
2023-11-23T13:08:46.599Z,150727.31
2023-11-23T13:10:48.214Z,150732.38
2023-11-23T13:12:49.932Z,150705.88
2023-11-23T13:14:51.755Z,150722.25
2023-11-23T13:16:53.227Z,150718.53
2023-11-23T13:19:10.759Z,150717.25
2023-11-23T13:21:16.394Z,150746.22
2023-11-23T13:23:17.896Z,150722.25
2023-11-23T13:25:19.661Z,150713.47
2023-11-23T13:27:21.704Z,150717.25
2023-11-23T13:29:23.154Z,150758.84
2023-11-23T13:31:25.037Z,150752.53
2023-11-23T13:33:26.701Z,150799.19
2023-11-23T13:35:28.397Z,150753.78
2023-11-23T13:37:30.144Z,150755.06
2023-11-23T13:39:31.748Z,150773.97
2023-11-23T13:41:33.260Z,150729.84
2023-11-23T13:43:34.875Z,150690.78
2023-11-23T13:45:36.528Z,150750.00
2023-11-23T13:47:38.454Z,150761.31
2023-11-23T13:49:41.407Z,150761.31
2023-11-23T13:51:43.249Z,150757.59
2023-11-23T13:53:45.495Z,150742.41
2023-11-23T13:55:47.556Z,150785.28
2023-11-23T13:57:49.297Z,150760.13
2023-11-23T13:59:50.741Z,150826.91
2023-11-23T14:01:52.425Z,150816.84
2023-11-23T14:03:54.326Z,150791.59
2023-11-23T14:05:55.894Z,150775.22
2023-11-23T14:07:57.689Z,150795.41
2023-11-23T14:09:59.302Z,150787.81
2023-11-23T14:12:00.732Z,150826.91
2023-11-23T14:14:02.461Z,150806.72
2023-11-23T14:16:04.474Z,150818.09
2023-11-23T14:18:06.549Z,150781.50
2023-11-23T14:20:08.892Z,150794.13
2023-11-23T14:22:10.547Z,150826.91
2023-11-23T14:24:11.987Z,150789.06
2023-11-23T14:26:13.670Z,150789.06
2023-11-23T14:28:15.221Z,150779.03
2023-11-23T14:30:16.687Z,150806.72
2023-11-23T14:32:18.257Z,150806.72
2023-11-23T14:34:20.017Z,150757.59
2023-11-23T14:36:24.392Z,150746.22
2023-11-23T14:38:25.945Z,150792.88
2023-11-23T14:40:27.573Z,150756.31
2023-11-23T14:42:38.855Z,150791.59
2023-11-23T14:44:43.270Z,150770.16
2023-11-23T14:46:44.929Z,150747.47
2023-11-23T14:48:46.555Z,150751.28
2023-11-23T14:50:48.343Z,150704.63
2023-11-23T14:52:49.965Z,150736.16
2023-11-23T14:54:51.430Z,150751.28
2023-11-23T14:56:53.164Z,150744.94
2023-11-23T14:58:54.738Z,150750.00
2023-11-23T15:00:56.357Z,150721.00
2023-11-23T15:02:59.314Z,150738.69
2023-11-23T15:05:00.852Z,150718.53
2023-11-23T15:07:02.348Z,150708.41
2023-11-23T15:09:03.984Z,150789.06
2023-11-23T15:11:05.580Z,150757.59
2023-11-23T15:13:07.232Z,150781.50
2023-11-23T15:15:09.175Z,150791.59
2023-11-23T15:17:10.741Z,150755.06
2023-11-23T15:19:12.226Z,150825.63
2023-11-23T15:21:13.705Z,150842.06
2023-11-23T15:23:15.241Z,150842.06
2023-11-23T15:25:16.881Z,150877.34
2023-11-23T15:27:18.746Z,150895.00
2023-11-23T15:29:20.326Z,150881.16
2023-11-23T15:31:21.857Z,150869.78
2023-11-23T15:33:24.016Z,150901.31
2023-11-23T15:35:25.570Z,150888.69
2023-11-23T15:37:27.019Z,150884.88
2023-11-23T15:39:30.182Z,150888.69
2023-11-23T15:41:31.958Z,150898.78
2023-11-23T15:43:33.502Z,150912.66
2023-11-23T15:45:35.365Z,150968.13
2023-11-23T15:47:36.948Z,150976.97
2023-11-23T15:49:38.579Z,150975.72
2023-11-23T15:51:40.200Z,150966.88
2023-11-23T15:53:41.731Z,150960.59
2023-11-23T15:55:43.153Z,151007.22
2023-11-23T15:57:44.866Z,151017.34
2023-11-23T15:59:46.502Z,151026.19
2023-11-23T16:01:48.015Z,151035.00
2023-11-23T16:03:49.689Z,151037.53
2023-11-23T16:05:51.309Z,151040.06
2023-11-23T16:07:53.663Z,151053.94
2023-11-23T16:09:55.438Z,151074.13
2023-11-23T16:11:56.988Z,151076.66
2023-11-23T16:13:58.422Z,151075.38
2023-11-23T16:16:00.048Z,151080.44
2023-11-23T16:18:01.775Z,151093.09
2023-11-23T16:20:03.406Z,151085.50
2023-11-23T16:22:04.916Z,151124.66
2023-11-23T16:24:09.863Z,151119.59
2023-11-23T16:26:11.322Z,151139.78
2023-11-23T16:28:12.854Z,151143.59
2023-11-23T16:30:15.362Z,151144.84
2023-11-23T16:32:17.016Z,151151.13
2023-11-23T16:34:18.938Z,151152.41
2023-11-23T16:36:30.229Z,151167.56
2023-11-23T16:38:38.349Z,151156.19
2023-11-23T16:40:39.868Z,151152.41
2023-11-23T16:42:43.035Z,151190.31
2023-11-23T16:44:44.845Z,151177.66
2023-11-23T16:46:46.795Z,151167.56
2023-11-23T16:48:48.453Z,151187.78
2023-11-23T16:50:50.169Z,151212.97
2023-11-23T16:52:51.712Z,151211.75
2023-11-23T16:54:53.267Z,151215.50
2023-11-23T16:56:54.707Z,151215.50
2023-11-23T16:58:56.345Z,151185.25
2023-11-23T17:00:58.083Z,151196.56
2023-11-23T17:02:59.971Z,151225.63
2023-11-23T17:05:01.877Z,151196.56
2023-11-23T17:07:03.834Z,151229.44
2023-11-23T17:09:05.312Z,151236.97
2023-11-23T17:11:06.769Z,151235.72
2023-11-23T17:13:08.727Z,151240.78
2023-11-23T17:15:10.547Z,151268.56
2023-11-23T17:17:12.239Z,151240.78
2023-11-23T17:19:14.362Z,151224.38
2023-11-23T17:21:15.895Z,151238.25
2023-11-23T17:23:17.321Z,151282.44
2023-11-23T17:25:19.085Z,151239.50
2023-11-23T17:27:20.603Z,151278.63
2023-11-23T17:29:22.048Z,151250.88
2023-11-23T17:31:23.813Z,151194.03
2023-11-23T17:33:25.295Z,151243.28
2023-11-23T17:35:27.013Z,151230.69
2023-11-23T17:37:28.731Z,151233.19
2023-11-23T17:39:30.369Z,151236.97
2023-11-23T17:41:31.840Z,151223.09
2023-11-23T17:43:33.621Z,151210.50
2023-11-23T17:45:35.084Z,151225.63
2023-11-23T17:47:36.661Z,151223.09
2023-11-23T17:49:38.750Z,151224.38
2023-11-23T17:51:40.525Z,151248.34
2023-11-23T17:53:41.970Z,151235.72
2023-11-23T17:55:43.769Z,151229.44
2023-11-23T17:57:45.303Z,151229.44
2023-11-23T17:59:49.940Z,151243.28
2023-11-23T18:01:52.913Z,151187.78
2023-11-23T18:03:54.840Z,151210.50
2023-11-23T18:05:56.417Z,151202.91
2023-11-23T18:08:01.066Z,151205.44
2023-11-23T18:10:02.568Z,151220.56
2023-11-23T18:12:04.230Z,151209.22
2023-11-23T18:14:05.975Z,151197.84
2023-11-23T18:16:07.706Z,151186.50
2023-11-23T18:18:15.400Z,151196.56
2023-11-23T18:20:23.737Z,151166.31
2023-11-23T18:22:25.193Z,151192.78
2023-11-23T18:24:26.668Z,151190.31
2023-11-23T18:26:28.331Z,151195.31
2023-11-23T18:28:29.785Z,151215.50
2023-11-23T18:30:31.569Z,151202.91
2023-11-23T18:32:33.467Z,151242.03
2023-11-23T18:34:35.179Z,151225.63
2023-11-23T18:36:36.947Z,151230.69
2023-11-23T18:38:38.983Z,151201.63
2023-11-23T18:40:40.988Z,151254.66
2023-11-23T18:42:43.631Z,151274.84
2023-11-23T18:44:45.383Z,151266.03
2023-11-23T18:46:46.970Z,151284.97
2023-11-23T18:48:48.556Z,151252.16
2023-11-23T18:50:50.170Z,151255.91
2023-11-23T18:52:51.685Z,151288.75
2023-11-23T18:54:53.198Z,151276.09
2023-11-23T18:56:54.790Z,151303.91
2023-11-23T18:58:56.366Z,151303.91
2023-11-23T19:00:57.919Z,151321.56
2023-11-23T19:02:59.625Z,151350.63
2023-11-23T19:05:01.277Z,151319.03
2023-11-23T19:07:02.776Z,151360.72
2023-11-23T19:09:04.637Z,151377.13
2023-11-23T19:11:06.415Z,151399.88
2023-11-23T19:13:07.890Z,151397.34
2023-11-23T19:15:09.981Z,151410.00
2023-11-23T19:17:11.624Z,151427.66
2023-11-23T19:19:13.297Z,151444.09
2023-11-23T19:21:17.744Z,151394.84
2023-11-23T19:23:19.485Z,151360.72
2023-11-23T19:25:22.471Z,151364.50
2023-11-23T19:27:25.442Z,151336.72
2023-11-23T19:29:35.456Z,151341.78
2023-11-23T19:31:47.604Z,151264.75
2023-11-23T19:33:49.477Z,151218.03
2023-11-23T19:35:51.211Z,151117.06
2023-11-23T19:37:52.878Z,151084.22
2023-11-23T19:39:54.661Z,151036.28
2023-11-23T19:41:59.067Z,151100.69
2023-11-23T19:44:00.728Z,151036.28
2023-11-23T19:46:02.624Z,151069.06
2023-11-23T19:48:04.515Z,151029.94
2023-11-23T19:50:06.714Z,150979.50
2023-11-23T19:52:15.700Z,150995.91
2023-11-23T19:54:18.298Z,150968.13
2023-11-23T19:56:21.931Z,150956.81
2023-11-23T19:58:24.969Z,150937.88
2023-11-23T20:00:26.776Z,150963.13
2023-11-23T20:02:28.283Z,150946.69
2023-11-23T20:04:30.050Z,150926.50
2023-11-23T20:06:31.690Z,150922.75
2023-11-23T20:08:33.802Z,150939.16
2023-11-23T20:10:35.428Z,150937.88
2023-11-23T20:12:36.974Z,150936.63
2023-11-23T20:14:38.427Z,150908.84
2023-11-23T20:16:40.048Z,150794.13
2023-11-23T20:18:41.666Z,150839.53
2023-11-23T20:20:43.131Z,150872.28
2023-11-23T20:22:44.706Z,150816.84
2023-11-23T20:24:46.246Z,150854.66
2023-11-23T20:26:47.675Z,150824.38
2023-11-23T20:28:49.226Z,150864.72
2023-11-23T20:30:50.775Z,150888.69
2023-11-23T20:32:52.357Z,150853.38
2023-11-23T20:34:54.029Z,150874.81
2023-11-23T20:36:55.671Z,150847.06
2023-11-23T20:38:57.382Z,150872.28
2023-11-23T20:40:58.937Z,150828.16
2023-11-23T20:43:00.379Z,150857.19
2023-11-23T20:45:01.842Z,150872.28
2023-11-23T20:47:03.375Z,150847.06
2023-11-23T20:49:04.996Z,150876.09
2023-11-23T20:51:06.516Z,150862.22
2023-11-23T20:53:08.067Z,150835.75
2023-11-23T20:55:10.745Z,150826.91
2023-11-23T20:57:12.804Z,150831.94
2023-11-23T20:59:14.565Z,150819.34
2023-11-23T21:01:16.915Z,150834.47
2023-11-23T21:03:18.873Z,150794.13
2023-11-23T21:05:21.039Z,150748.75
2023-11-23T21:07:22.828Z,150753.78
2023-11-23T21:09:24.509Z,150733.63
2023-11-23T21:11:26.051Z,150722.25
2023-11-23T21:13:27.699Z,150714.72
2023-11-23T21:15:30.517Z,150688.25
2023-11-23T21:17:32.385Z,150670.59
2023-11-23T21:19:36.335Z,150681.94
2023-11-23T21:21:42.065Z,150717.25
2023-11-23T21:23:43.609Z,150723.53
2023-11-23T21:25:45.158Z,150713.47
2023-11-23T21:27:46.652Z,150716.00
2023-11-23T21:29:48.633Z,150705.88
2023-11-23T21:31:50.335Z,150686.97
2023-11-23T21:33:52.842Z,150688.25
2023-11-23T21:35:54.466Z,150713.47
2023-11-23T21:37:56.040Z,150673.13
2023-11-23T21:39:57.958Z,150750.00
2023-11-23T21:42:00.804Z,150726.06
2023-11-23T21:44:02.364Z,150694.56
2023-11-23T21:46:03.917Z,150678.19
2023-11-23T21:48:05.830Z,150655.50
2023-11-23T21:50:08.120Z,150622.72
2023-11-23T21:52:10.624Z,150642.88
2023-11-23T21:54:12.381Z,150685.72
2023-11-23T21:56:13.978Z,150679.41
2023-11-23T21:58:15.417Z,150675.66
2023-11-23T22:00:17.183Z,150679.41
2023-11-23T22:02:18.786Z,150650.44
2023-11-23T22:04:20.522Z,150647.91
2023-11-23T22:06:22.157Z,150671.88
2023-11-23T22:08:23.846Z,150680.66
2023-11-23T22:10:25.293Z,150664.28
2023-11-23T22:12:27.048Z,150690.78
2023-11-23T22:14:28.599Z,150663.03
2023-11-23T22:16:30.257Z,150658.03
2023-11-23T22:18:32.373Z,150647.91
2023-11-23T22:20:34.097Z,150650.44
2023-11-23T22:22:35.953Z,150617.66
2023-11-23T22:24:37.710Z,150603.81
2023-11-23T22:26:39.577Z,150625.22
2023-11-23T22:28:41.530Z,150654.22
2023-11-23T22:30:43.469Z,150649.19
2023-11-23T22:32:45.514Z,150596.28
2023-11-23T22:34:47.214Z,150623.97
2023-11-23T22:36:49.024Z,150596.28
2023-11-23T22:38:50.723Z,150617.66
2023-11-23T22:40:52.400Z,150572.34
2023-11-23T22:42:54.330Z,150600.03
2023-11-23T22:44:56.077Z,150632.81
2023-11-23T22:46:57.892Z,150654.22
2023-11-23T22:48:59.665Z,150607.59
2023-11-23T22:51:01.199Z,150607.59
2023-11-23T22:53:02.635Z,150636.59
2023-11-23T22:55:04.708Z,150652.97
2023-11-23T22:57:06.530Z,150659.25
2023-11-23T22:59:07.973Z,150635.34
2023-11-23T23:01:09.777Z,150631.56
2023-11-23T23:03:11.368Z,150639.06
2023-11-23T23:05:12.904Z,150649.19
2023-11-23T23:07:14.656Z,150615.19
2023-11-23T23:09:16.098Z,150645.41
2023-11-23T23:11:17.550Z,150642.88
2023-11-23T23:13:19.388Z,150660.50